Impacts TAF Board
For situational awareness. Not to be used for flight planning purposes.
IDs:

KEWR - Newark Intl, NJ, US

Issued at 0833 UTC 25 May 2020
Updated at 0920 UTC 25 May 2020
Potential Impact None Slight Moderate High
Time0851Z 25/10Z 25/11Z 25/12Z 25/13Z 25/14Z 25/15Z 25/16Z 25/17Z 25/18Z 25/19Z 25/20Z 25/21Z 25/22Z>>
Type OBS PRVL
  [TEMP]  
PRVL PRVL PRVL PRVL PRVL PRVL PRVL PRVL
  [TEMP]  
PRVL
  [TEMP]  
PRVL PRVL PRVL
VIS 6 >6
  [6]  
>6 >6 >6 >6 >6 >6 >6 >6 >6 >6 >6 >6
CIG 7 8
  [8]  
8 8 8 8 20 20 20 --
  [30]  
--
  [30]  
-- -- --
Cover OVC OVC
  [OVC]  
OVC OVC OVC OVC BKN BKN BKN SCT
  [BKN]  
SCT
  [BKN]  
SCT SCT SCT
FltCat IFR IFR
  [IFR]  
IFR IFR IFR IFR MVFR MVFR MVFR VFR
  [MVFR]  
VFR
  [MVFR]  
VFR VFR VFR
WX -DZ BR --
  [-DZ BR]  
-- -- -- -- -- -- -- --
  [--]  
--
  [--]  
-- -- --
WDir 30 50
[50]
50 50 50 50 90 90 90 140
[140]
140
[140]
140 140 140
WSpd 8 5
  [5]  
5 5 5 5 5 5 5 7
  [7]  
7
  [7]  
7 7 7
WGst -- --
  [--]  
-- -- -- -- -- -- -- --
  [--]  
--
  [--]  
-- -- --
Raw TAF
KEWR 250833Z 2509/2612 05005KT P6SM BKN008 OVC015
  TEMPO 2509/2511 6SM -DZ BR
  FM251500 09005KT P6SM BKN020
  FM251800 14007KT P6SM SCT030
  TEMPO 2518/2520 BKN030
  FM260400 VRB03KT P6SM SCT008 BKN012
  TEMPO 2608/2612 3SM BR BKN008 OVC012


Raw METAR
KEWR 250851Z 03008KT 6SM -DZ BR OVC007 13/13 A3020 RMK AO2 SLP227 CIG 005V009 P0000 60000 T01330128 50000
KEWR 250751Z 02008KT 6SM -DZ BR FEW005 OVC008 14/12 A3021 RMK AO2 DZB32 SLP230 P0000 T01390122
KEWR 250732Z 02008KT 9SM -DZ FEW006 OVC009 14/12 A3021 RMK AO2 DZB32 P0000 T01390122
KEWR 250651Z 01006KT 10SM OVC015 15/12 A3021 RMK AO2 SLP228 T01500117

METAR Board
Radar Display
Forecast Discussion
For situational awareness. Not to be used for flight planning purposes.